createdAt,value
2019-02-21T00:02:26.956Z,18.67
2019-02-21T00:04:56.633Z,17.03
2019-02-21T00:07:26.365Z,13.07
2019-02-21T00:09:56.073Z,15.23
2019-02-21T00:12:26.339Z,19.57
2019-02-21T00:14:56.261Z,20.20
2019-02-21T00:17:26.193Z,18.47
2019-02-21T00:19:56.090Z,18.70
2019-02-21T00:22:25.816Z,17.40
2019-02-21T00:24:55.474Z,16.77
2019-02-21T00:27:25.198Z,16.00
2019-02-21T00:29:54.883Z,14.87
2019-02-21T00:32:24.582Z,13.03
2019-02-21T00:34:54.522Z,15.63
2019-02-21T00:37:24.482Z,15.97
2019-02-21T00:39:54.491Z,16.00
2019-02-21T00:42:24.436Z,15.83
2019-02-21T00:44:54.463Z,15.50
2019-02-21T00:47:24.404Z,13.30
2019-02-21T00:49:54.395Z,13.30
2019-02-21T00:52:24.489Z,15.03
2019-02-21T00:54:54.476Z,17.23
2019-02-21T00:57:24.140Z,12.47
2019-02-21T00:59:54.469Z,15.73
2019-02-21T01:02:24.162Z,13.80
2019-02-21T01:04:54.131Z,16.73
2019-02-21T01:07:24.138Z,16.17
2019-02-21T01:09:53.853Z,12.50
2019-02-21T01:12:23.555Z,14.73
2019-02-21T01:14:54.882Z,18.40
2019-02-21T01:17:24.598Z,18.70
2019-02-21T01:19:54.249Z,13.10
2019-02-21T01:22:23.939Z,14.50
2019-02-21T01:24:53.673Z,14.40
2019-02-21T01:27:23.371Z,16.83
2019-02-21T01:29:53.114Z,17.13
2019-02-21T01:32:22.808Z,13.00
2019-02-21T01:34:52.474Z,14.10
2019-02-21T01:37:22.181Z,18.37
2019-02-21T01:39:51.891Z,17.63
2019-02-21T01:42:21.600Z,22.57
2019-02-21T01:44:51.329Z,29.10
2019-02-21T01:47:20.993Z,26.63
2019-02-21T01:49:50.710Z,28.50
2019-02-21T01:52:20.477Z,33.47
2019-02-21T01:54:50.156Z,26.47
2019-02-21T01:57:20.006Z,32.73
2019-02-21T01:59:49.687Z,26.50
2019-02-21T02:02:19.396Z,25.90
2019-02-21T02:04:49.102Z,24.27
2019-02-21T02:07:19.008Z,20.73
2019-02-21T02:09:48.716Z,24.83
2019-02-21T02:12:18.389Z,22.60
2019-02-21T02:14:48.058Z,18.43
2019-02-21T02:17:17.764Z,22.70
2019-02-21T02:19:47.433Z,22.07
2019-02-21T02:22:17.157Z,23.00
2019-02-21T02:24:46.920Z,19.27
2019-02-21T02:27:16.617Z,21.03
2019-02-21T02:29:46.405Z,18.50
2019-02-21T02:32:16.106Z,19.63
2019-02-21T02:34:45.827Z,20.40
2019-02-21T02:37:15.508Z,19.87
2019-02-21T02:39:45.229Z,20.83
2019-02-21T02:42:14.935Z,22.67
2019-02-21T02:44:44.633Z,21.23
2019-02-21T02:47:14.320Z,22.97
2019-02-21T02:49:44.064Z,24.80
2019-02-21T02:52:13.765Z,24.07
2019-02-21T02:54:43.471Z,19.67
2019-02-21T02:57:13.139Z,20.47
2019-02-21T02:59:42.875Z,20.50
2019-02-21T03:02:12.576Z,19.70
2019-02-21T03:04:42.408Z,23.87
2019-02-21T03:07:12.096Z,21.53
2019-02-21T03:09:41.880Z,21.77
2019-02-21T03:12:11.551Z,21.00
2019-02-21T03:14:41.242Z,20.50
2019-02-21T03:17:10.987Z,21.40
2019-02-21T03:19:40.706Z,17.00
2019-02-21T03:22:10.335Z,21.70
2019-02-21T03:24:40.311Z,25.27
2019-02-21T03:27:10.013Z,21.73
2019-02-21T03:29:39.689Z,39.60
2019-02-21T03:32:09.400Z,28.70
2019-02-21T03:34:39.132Z,32.03
2019-02-21T03:37:08.830Z,34.33
2019-02-21T03:39:38.539Z,26.43
2019-02-21T03:42:08.236Z,30.83
2019-02-21T03:44:37.905Z,28.67
2019-02-21T03:47:07.611Z,27.40
2019-02-21T03:49:37.338Z,23.43
2019-02-21T03:52:07.656Z,22.70
2019-02-21T03:54:37.391Z,21.60
2019-02-21T03:57:07.130Z,21.83
2019-02-21T03:59:36.916Z,22.70
2019-02-21T04:02:06.651Z,24.90
2019-02-21T04:04:36.509Z,29.43
2019-02-21T04:07:06.428Z,28.33
2019-02-21T04:09:36.130Z,27.03
2019-02-21T04:12:05.861Z,26.60
2019-02-21T04:14:35.740Z,27.80
2019-02-21T04:17:05.446Z,25.63
2019-02-21T04:19:35.113Z,29.00
2019-02-21T04:22:04.792Z,24.63
2019-02-21T04:24:34.478Z,31.47
2019-02-21T04:27:04.202Z,39.03
2019-02-21T04:29:35.856Z,35.50
2019-02-21T04:32:16.061Z,32.60
2019-02-21T04:34:36.887Z,33.37
2019-02-21T04:37:06.581Z,30.50
2019-02-21T04:39:36.325Z,36.23
2019-02-21T04:42:06.494Z,31.23
2019-02-21T04:44:36.173Z,30.70
2019-02-21T04:47:05.949Z,28.63
2019-02-21T04:49:37.499Z,28.23
2019-02-21T04:52:07.193Z,30.83
2019-02-21T04:54:36.915Z,30.40
2019-02-21T04:57:06.635Z,32.00
2019-02-21T04:59:38.373Z,35.57
2019-02-21T05:02:08.112Z,29.90
2019-02-21T05:04:37.779Z,35.10
2019-02-21T05:07:07.518Z,37.63
2019-02-21T05:09:37.209Z,34.57
2019-02-21T05:12:06.862Z,36.70
2019-02-21T05:14:38.598Z,37.73
2019-02-21T05:17:08.295Z,38.27
2019-02-21T05:19:40.307Z,37.83
2019-02-21T05:22:10.075Z,39.67
2019-02-21T05:24:39.749Z,48.10
2019-02-21T05:27:13.764Z,39.60
2019-02-21T05:29:43.506Z,39.23
2019-02-21T05:32:41.046Z,39.73
2019-02-21T05:35:22.838Z,36.20
2019-02-21T05:38:04.383Z,38.60
2019-02-21T05:40:58.738Z,40.20
2019-02-21T05:43:47.377Z,38.30
2019-02-21T05:46:44.923Z,38.83
2019-02-21T05:49:45.806Z,41.40
2019-02-21T05:52:28.603Z,214.93
2019-02-21T05:55:15.672Z,231.70
2019-02-21T05:58:13.080Z,188.97
2019-02-21T06:00:54.385Z,113.30
2019-02-21T06:03:57.990Z,66.30
2019-02-21T06:06:43.139Z,54.67
2019-02-21T06:09:18.027Z,59.33
2019-02-21T06:12:09.496Z,59.93
2019-02-21T06:14:54.928Z,74.43
2019-02-21T06:17:43.484Z,71.27
2019-02-21T06:20:29.186Z,76.97
2019-02-21T06:23:11.205Z,55.50
2019-02-21T06:26:07.747Z,49.47
2019-02-21T06:28:57.528Z,51.37
2019-02-21T06:31:27.254Z,68.50
2019-02-21T06:33:57.980Z,133.17
2019-02-21T06:36:27.733Z,88.70
2019-02-21T06:38:57.436Z,97.70
2019-02-21T06:41:29.752Z,63.50
2019-02-21T06:43:58.539Z,64.60
2019-02-21T06:46:28.268Z,74.97
2019-02-21T06:48:57.959Z,64.50
2019-02-21T06:51:27.695Z,61.13
2019-02-21T06:53:57.344Z,53.77
2019-02-21T06:56:27.062Z,59.33
2019-02-21T06:58:56.750Z,59.30
2019-02-21T07:01:29.409Z,58.90
2019-02-21T07:03:58.415Z,63.43
2019-02-21T07:06:31.859Z,54.97
2019-02-21T07:08:59.967Z,70.40
2019-02-21T07:11:29.931Z,143.93
2019-02-21T07:13:59.585Z,279.20
2019-02-21T07:16:29.276Z,98.97
2019-02-21T07:18:58.973Z,116.13
2019-02-21T07:21:28.646Z,94.47
2019-02-21T07:23:58.365Z,90.13
2019-02-21T07:26:28.034Z,71.30
2019-02-21T07:28:58.389Z,78.27
2019-02-21T07:31:29.380Z,85.57
2019-02-21T07:34:01.666Z,84.97
2019-02-21T07:36:31.179Z,79.33
2019-02-21T07:39:13.923Z,78.10
2019-02-21T07:41:32.253Z,69.47
2019-02-21T07:44:11.736Z,67.57
2019-02-21T07:46:33.759Z,64.67
2019-02-21T07:49:03.445Z,54.90
2019-02-21T07:51:35.735Z,55.33
2019-02-21T07:54:04.757Z,45.77
2019-02-21T07:56:41.657Z,52.50
2019-02-21T07:59:05.786Z,48.17
2019-02-21T08:01:35.470Z,47.33
2019-02-21T08:04:05.237Z,51.20
2019-02-21T08:06:34.924Z,51.43
2019-02-21T08:09:05.819Z,46.33
2019-02-21T08:11:35.503Z,44.47
2019-02-21T08:14:05.223Z,51.50
2019-02-21T08:16:34.983Z,51.97
2019-02-21T08:19:04.643Z,45.23
2019-02-21T08:21:34.484Z,41.90
2019-02-21T08:24:04.150Z,37.20
2019-02-21T08:26:33.939Z,39.63
2019-02-21T08:29:05.979Z,50.60
2019-02-21T08:31:35.026Z,34.17
2019-02-21T08:34:17.616Z,34.87
2019-02-21T08:36:47.328Z,36.13
2019-02-21T08:39:17.018Z,36.00
2019-02-21T08:41:46.697Z,40.20
2019-02-21T08:44:16.930Z,40.10
2019-02-21T08:46:46.610Z,43.13
2019-02-21T08:49:16.341Z,40.10
2019-02-21T08:51:46.033Z,36.83
2019-02-21T08:54:16.202Z,33.30
2019-02-21T08:56:46.412Z,35.57
2019-02-21T08:59:16.099Z,30.87
2019-02-21T09:01:45.826Z,32.80
2019-02-21T09:04:26.915Z,31.87
2019-02-21T09:06:47.406Z,35.43
2019-02-21T09:09:17.146Z,38.10
2019-02-21T09:11:46.822Z,38.47
2019-02-21T09:14:17.070Z,42.57
2019-02-21T09:16:46.805Z,43.83
2019-02-21T09:19:16.471Z,58.07
2019-02-21T09:21:46.142Z,49.63
2019-02-21T09:24:35.286Z,52.67
2019-02-21T09:26:48.944Z,46.63
2019-02-21T09:29:19.596Z,38.20
2019-02-21T09:31:49.412Z,43.87
2019-02-21T09:34:21.461Z,45.17
2019-02-21T09:36:50.580Z,51.07
2019-02-21T09:39:20.306Z,48.30
2019-02-21T09:41:49.987Z,39.20
2019-02-21T09:44:19.673Z,37.57
2019-02-21T09:46:49.423Z,34.53
2019-02-21T09:49:19.086Z,39.77
2019-02-21T09:51:48.827Z,41.93
2019-02-21T09:54:19.183Z,39.17
2019-02-21T09:56:52.729Z,33.47
2019-02-21T09:59:20.630Z,36.43
2019-02-21T10:01:50.267Z,46.67
2019-02-21T10:04:19.952Z,46.60
2019-02-21T10:06:49.735Z,40.97
2019-02-21T10:09:19.786Z,39.57
2019-02-21T10:11:49.488Z,39.70
2019-02-21T10:14:21.433Z,42.50
2019-02-21T10:16:50.636Z,67.93
2019-02-21T10:19:20.364Z,40.00
2019-02-21T10:21:50.078Z,40.43
2019-02-21T10:24:19.752Z,45.57
2019-02-21T10:26:49.479Z,48.43
2019-02-21T10:29:19.693Z,47.67
2019-02-21T10:31:49.473Z,51.97
2019-02-21T10:34:21.747Z,45.63
2019-02-21T10:36:50.847Z,46.13
2019-02-21T10:39:20.535Z,46.53
2019-02-21T10:41:50.211Z,43.13
2019-02-21T10:44:19.918Z,54.03
2019-02-21T10:46:49.667Z,53.63
2019-02-21T10:49:19.389Z,55.10
2019-02-21T10:51:49.075Z,53.33
2019-02-21T10:54:20.319Z,47.53
2019-02-21T10:56:50.031Z,53.97
2019-02-21T10:59:19.724Z,51.83
2019-02-21T11:01:49.399Z,49.67
2019-02-21T11:04:19.120Z,55.90
2019-02-21T11:06:48.912Z,54.53
2019-02-21T11:09:22.549Z,50.83
2019-02-21T11:11:52.861Z,54.83
2019-02-21T11:14:22.503Z,51.27
2019-02-21T11:16:52.175Z,52.20
2019-02-21T11:19:21.885Z,51.17
2019-02-21T11:21:51.570Z,53.47
2019-02-21T11:24:21.267Z,50.63
2019-02-21T11:26:50.963Z,56.77
2019-02-21T11:29:20.686Z,49.10
2019-02-21T11:31:50.351Z,50.00
2019-02-21T11:34:20.024Z,62.13
2019-02-21T11:36:49.732Z,54.67
2019-02-21T11:39:19.506Z,46.77
2019-02-21T11:41:49.256Z,51.30
2019-02-21T11:44:18.939Z,60.07
2019-02-21T11:46:48.615Z,52.20
2019-02-21T11:49:18.333Z,52.80
2019-02-21T11:51:48.069Z,44.60
2019-02-21T11:54:26.592Z,49.93
2019-02-21T11:56:49.131Z,48.33
2019-02-21T11:59:18.832Z,48.87
2019-02-21T12:01:48.565Z,52.23
2019-02-21T12:04:18.278Z,52.17
2019-02-21T12:06:47.933Z,50.90
2019-02-21T12:09:17.644Z,50.77
2019-02-21T12:11:47.387Z,53.43
2019-02-21T12:14:17.068Z,51.23
2019-02-21T12:16:46.737Z,46.87
2019-02-21T12:19:17.397Z,47.80
2019-02-21T12:21:58.368Z,41.33
2019-02-21T12:24:18.634Z,44.77
2019-02-21T12:26:48.321Z,46.10
2019-02-21T12:29:18.014Z,40.80
2019-02-21T12:31:47.755Z,37.37
2019-02-21T12:34:17.513Z,36.33
2019-02-21T12:36:47.240Z,43.27
2019-02-21T12:39:16.949Z,41.90
2019-02-21T12:41:46.724Z,40.77
2019-02-21T12:44:16.419Z,37.73
2019-02-21T12:46:46.124Z,42.60
2019-02-21T12:49:15.905Z,37.80
2019-02-21T12:51:45.650Z,36.13
2019-02-21T12:54:15.338Z,39.13
2019-02-21T12:56:45.002Z,36.00
2019-02-21T12:59:14.719Z,38.20
2019-02-21T13:01:44.403Z,42.03
2019-02-21T13:04:14.097Z,37.67
2019-02-21T13:06:43.821Z,36.40
2019-02-21T13:09:14.010Z,37.20
2019-02-21T13:11:43.677Z,35.20
2019-02-21T13:14:13.387Z,34.67
2019-02-21T13:16:43.111Z,55.77
2019-02-21T13:19:12.807Z,34.33
2019-02-21T13:21:42.562Z,33.77
2019-02-21T13:24:12.280Z,38.40
2019-02-21T13:26:42.770Z,35.30
2019-02-21T13:29:12.595Z,35.73
2019-02-21T13:31:43.051Z,32.67
2019-02-21T13:34:12.738Z,30.90
2019-02-21T13:36:42.442Z,31.73
2019-02-21T13:39:13.395Z,29.00
2019-02-21T13:41:43.135Z,29.23
2019-02-21T13:44:12.930Z,23.47
2019-02-21T13:46:42.615Z,25.93
2019-02-21T13:49:12.346Z,23.50
2019-02-21T13:51:41.990Z,24.63
2019-02-21T13:54:11.705Z,21.23
2019-02-21T13:56:41.888Z,21.17
2019-02-21T13:59:11.590Z,21.07
2019-02-21T14:01:41.338Z,17.37
2019-02-21T14:04:10.990Z,17.20
2019-02-21T14:06:40.655Z,15.30
2019-02-21T14:09:10.934Z,19.43
2019-02-21T14:11:40.635Z,22.10
2019-02-21T14:14:10.308Z,19.13
2019-02-21T14:16:46.565Z,18.20
2019-02-21T14:19:11.335Z,18.30
2019-02-21T14:21:43.547Z,21.73
2019-02-21T14:24:12.369Z,25.90
2019-02-21T14:26:42.054Z,28.07
2019-02-21T14:29:11.751Z,27.83
2019-02-21T14:31:41.460Z,32.60
2019-02-21T14:34:11.122Z,25.97
2019-02-21T14:36:40.835Z,22.50
2019-02-21T14:39:10.782Z,27.97
2019-02-21T14:41:40.425Z,18.87
2019-02-21T14:44:10.176Z,18.27
2019-02-21T14:46:39.914Z,19.47
2019-02-21T14:49:09.756Z,19.83
2019-02-21T14:51:39.510Z,15.47
2019-02-21T14:54:09.171Z,13.97
2019-02-21T14:56:38.844Z,18.30
2019-02-21T14:59:08.580Z,13.33
2019-02-21T15:01:38.229Z,13.30
2019-02-21T15:04:07.905Z,14.40
2019-02-21T15:06:37.626Z,15.93
2019-02-21T15:09:07.997Z,17.30
2019-02-21T15:11:38.646Z,15.77
2019-02-21T15:14:08.297Z,17.77
2019-02-21T15:16:38.005Z,24.77
2019-02-21T15:19:07.690Z,22.27
2019-02-21T15:21:37.398Z,21.17
2019-02-21T15:24:07.062Z,23.17
2019-02-21T15:26:36.727Z,20.73
2019-02-21T15:29:06.454Z,18.07
2019-02-21T15:31:36.156Z,16.23
2019-02-21T15:34:05.915Z,16.30
2019-02-21T15:36:38.260Z,17.37
2019-02-21T15:39:08.798Z,17.20
2019-02-21T15:41:38.486Z,18.53
2019-02-21T15:44:08.174Z,17.30
2019-02-21T15:46:37.901Z,18.07
2019-02-21T15:49:07.691Z,19.17
2019-02-21T15:51:37.445Z,24.63
2019-02-21T15:54:07.264Z,20.20
2019-02-21T15:56:36.994Z,24.13
2019-02-21T15:59:07.160Z,26.40
2019-02-21T16:01:46.953Z,20.90
2019-02-21T16:04:08.390Z,23.03
2019-02-21T16:06:48.196Z,23.43
2019-02-21T16:09:16.314Z,27.10
2019-02-21T16:11:41.634Z,29.20
2019-02-21T16:14:11.298Z,24.80
2019-02-21T16:16:40.962Z,25.63
2019-02-21T16:19:10.717Z,25.90
2019-02-21T16:21:40.419Z,27.90
2019-02-21T16:24:10.163Z,28.50
2019-02-21T16:26:39.873Z,31.37
2019-02-21T16:29:09.577Z,26.83
2019-02-21T16:31:39.391Z,38.37
2019-02-21T16:34:09.376Z,46.73
2019-02-21T16:36:39.535Z,36.80
2019-02-21T16:39:09.299Z,46.00
2019-02-21T16:41:39.317Z,46.40
2019-02-21T16:44:09.024Z,50.27
2019-02-21T16:46:38.722Z,52.30
2019-02-21T16:49:08.472Z,45.80
2019-02-21T16:51:38.162Z,47.00
2019-02-21T16:54:07.849Z,56.03
2019-02-21T16:56:37.647Z,45.20
2019-02-21T16:59:07.336Z,37.47
2019-02-21T17:01:37.182Z,45.17
2019-02-21T17:04:06.947Z,52.90
2019-02-21T17:06:36.646Z,58.03
2019-02-21T17:09:07.784Z,64.37
2019-02-21T17:11:37.537Z,63.80
2019-02-21T17:14:07.273Z,56.80
2019-02-21T17:16:36.996Z,53.10
2019-02-21T17:19:06.698Z,48.20
2019-02-21T17:21:36.375Z,45.93
2019-02-21T17:24:06.240Z,49.07
2019-02-21T17:26:35.929Z,66.43
2019-02-21T17:29:05.683Z,57.47
2019-02-21T17:31:37.251Z,57.47
2019-02-21T17:34:06.795Z,52.97
2019-02-21T17:36:36.526Z,47.37
2019-02-21T17:39:07.703Z,48.20
2019-02-21T17:41:37.481Z,46.67
2019-02-21T17:44:07.190Z,47.13
2019-02-21T17:46:36.887Z,45.57
2019-02-21T17:49:06.610Z,47.13
2019-02-21T17:51:37.447Z,52.10
2019-02-21T17:54:07.271Z,55.30
2019-02-21T17:56:37.056Z,62.13
2019-02-21T17:59:06.888Z,70.10
2019-02-21T18:01:36.635Z,78.30
2019-02-21T18:04:06.379Z,67.00
2019-02-21T18:06:36.173Z,72.93
2019-02-21T18:09:06.787Z,67.63
2019-02-21T18:11:36.481Z,66.33
2019-02-21T18:14:07.437Z,56.77
2019-02-21T18:16:38.702Z,53.93
2019-02-21T18:19:08.410Z,48.97
2019-02-21T18:21:38.099Z,57.03
2019-02-21T18:24:07.798Z,50.97
2019-02-21T18:26:37.518Z,60.60
2019-02-21T18:29:07.199Z,50.83
2019-02-21T18:31:36.904Z,58.43
2019-02-21T18:34:07.938Z,57.13
2019-02-21T18:36:37.668Z,57.30
2019-02-21T18:39:08.586Z,46.57
2019-02-21T18:41:38.242Z,43.17
2019-02-21T18:44:07.984Z,40.27
2019-02-21T18:46:37.680Z,43.90
2019-02-21T18:49:07.445Z,48.20
2019-02-21T18:51:37.155Z,49.10
2019-02-21T18:54:06.863Z,50.30
2019-02-21T18:56:36.563Z,53.80
2019-02-21T18:59:06.269Z,72.60
2019-02-21T19:01:35.977Z,49.97
2019-02-21T19:04:05.673Z,50.93
2019-02-21T19:06:35.385Z,43.90
2019-02-21T19:09:06.381Z,52.90
2019-02-21T19:11:36.115Z,192.07
2019-02-21T19:14:06.189Z,237.13
2019-02-21T19:16:35.878Z,95.70
2019-02-21T19:19:05.756Z,72.67
2019-02-21T19:21:35.419Z,89.37
2019-02-21T19:24:05.095Z,125.30
2019-02-21T19:26:34.806Z,52.63
2019-02-21T19:29:04.719Z,39.10
2019-02-21T19:31:34.504Z,42.57
2019-02-21T19:34:04.199Z,52.00
2019-02-21T19:36:33.851Z,34.53
2019-02-21T19:39:05.253Z,32.73
2019-02-21T19:41:35.038Z,79.20
2019-02-21T19:44:08.822Z,53.57
2019-02-21T19:46:36.843Z,33.00
2019-02-21T19:49:06.577Z,54.33
2019-02-21T19:51:36.274Z,40.00
2019-02-21T19:54:06.129Z,30.50
2019-02-21T19:56:35.950Z,49.03
2019-02-21T19:59:05.642Z,49.53
2019-02-21T20:01:35.303Z,34.47
2019-02-21T20:04:05.057Z,46.63
2019-02-21T20:06:34.828Z,47.90
2019-02-21T20:09:05.518Z,32.83
2019-02-21T20:11:36.057Z,31.43
2019-02-21T20:14:19.472Z,55.30
2019-02-21T20:16:49.184Z,56.60
2019-02-21T20:19:18.858Z,29.47
2019-02-21T20:21:48.527Z,31.13
2019-02-21T20:24:18.273Z,24.60
2019-02-21T20:26:47.967Z,27.83
2019-02-21T20:29:17.668Z,25.90
2019-02-21T20:31:47.379Z,34.87
2019-02-21T20:34:17.141Z,33.13
2019-02-21T20:36:50.967Z,40.13
2019-02-21T20:39:18.271Z,38.50
2019-02-21T20:41:47.925Z,38.67
2019-02-21T20:44:17.779Z,23.90
2019-02-21T20:46:47.468Z,22.03
2019-02-21T20:49:17.132Z,21.60
2019-02-21T20:51:46.880Z,26.20
2019-02-21T20:54:16.627Z,32.53
2019-02-21T20:56:46.597Z,21.60
2019-02-21T20:59:16.602Z,21.30
2019-02-21T21:01:46.394Z,18.03
2019-02-21T21:04:16.243Z,27.00
2019-02-21T21:06:45.964Z,29.47
2019-02-21T21:09:15.671Z,25.80
2019-02-21T21:11:45.342Z,18.13
2019-02-21T21:14:15.103Z,19.30
2019-02-21T21:16:44.773Z,16.77
2019-02-21T21:19:14.461Z,15.70
2019-02-21T21:21:44.178Z,17.63
2019-02-21T21:24:13.858Z,16.00
2019-02-21T21:26:43.980Z,14.47
2019-02-21T21:29:13.655Z,14.83
2019-02-21T21:31:43.396Z,12.07
2019-02-21T21:34:13.057Z,14.20
2019-02-21T21:36:42.754Z,10.57
2019-02-21T21:39:14.743Z,11.13
2019-02-21T21:41:44.427Z,11.33
2019-02-21T21:44:14.131Z,11.67
2019-02-21T21:46:43.797Z,12.33
2019-02-21T21:49:13.519Z,11.03
2019-02-21T21:51:43.262Z,10.30
2019-02-21T21:54:12.971Z,11.53
2019-02-21T21:56:42.598Z,10.97
2019-02-21T21:59:12.447Z,12.37
2019-02-21T22:01:42.124Z,12.00
2019-02-21T22:04:11.790Z,10.70
2019-02-21T22:06:41.544Z,9.93
2019-02-21T22:09:11.341Z,10.90
2019-02-21T22:11:42.497Z,10.67
2019-02-21T22:14:12.277Z,10.00
2019-02-21T22:16:42.038Z,12.33
2019-02-21T22:19:11.806Z,11.80
2019-02-21T22:21:41.562Z,12.03
2019-02-21T22:24:11.374Z,12.80
2019-02-21T22:26:41.150Z,13.60
2019-02-21T22:29:10.934Z,11.97
2019-02-21T22:31:40.711Z,11.70
2019-02-21T22:34:10.507Z,10.70
2019-02-21T22:36:40.331Z,11.63
2019-02-21T22:39:16.464Z,7.50
2019-02-21T22:41:41.976Z,10.90
2019-02-21T22:44:11.718Z,8.57
2019-02-21T22:46:41.462Z,7.20
2019-02-21T22:49:11.274Z,7.63
2019-02-21T22:51:41.035Z,8.40
2019-02-21T22:54:10.822Z,6.60
2019-02-21T22:56:40.656Z,9.63
2019-02-21T22:59:10.409Z,4.90
2019-02-21T23:01:45.294Z,6.53
2019-02-21T23:04:24.603Z,5.00
2019-02-21T23:07:07.700Z,4.83
2019-02-21T23:09:37.599Z,4.87
2019-02-21T23:12:07.986Z,3.07
2019-02-21T23:14:40.734Z,5.07
2019-02-21T23:17:10.586Z,5.13
2019-02-21T23:19:40.366Z,4.03
2019-02-21T23:22:10.206Z,6.10
2019-02-21T23:24:40.042Z,6.70
2019-02-21T23:27:09.821Z,6.13
2019-02-21T23:29:39.569Z,5.80
2019-02-21T23:32:09.477Z,5.23
2019-02-21T23:34:45.998Z,11.80
2019-02-21T23:37:15.782Z,4.53
2019-02-21T23:39:45.553Z,6.60
2019-02-21T23:42:15.300Z,6.57
2019-02-21T23:44:45.125Z,7.37
2019-02-21T23:47:14.867Z,5.53
2019-02-21T23:49:44.724Z,5.50
2019-02-21T23:52:14.555Z,7.60
2019-02-21T23:54:44.295Z,7.33
2019-02-21T23:57:14.426Z,7.93
2019-02-21T23:59:44.193Z,7.80
